sensor_id;sensor_type;location;lat;lon;timestamp;pressure;altitude;pressure_sealevel;temperature;humidity
71299;BME280;59083;47.974;21.722;2022-07-29T00:02:41;100461.22;;;21.91;60.38
71299;BME280;59083;47.974;21.722;2022-07-29T00:05:42;100467.97;;;21.88;60.43
71299;BME280;59083;47.974;21.722;2022-07-29T00:08:43;100473.09;;;21.84;60.56
71299;BME280;59083;47.974;21.722;2022-07-29T00:11:45;100464.94;;;21.79;60.69
71299;BME280;59083;47.974;21.722;2022-07-29T00:14:46;100466.53;;;21.75;60.78
71299;BME280;59083;47.974;21.722;2022-07-29T00:17:47;100464.31;;;21.72;61.03
71299;BME280;59083;47.974;21.722;2022-07-29T00:20:48;100470.78;;;21.66;61.02
71299;BME280;59083;47.974;21.722;2022-07-29T00:23:50;100469.91;;;21.61;61.63
71299;BME280;59083;47.974;21.722;2022-07-29T00:26:51;100458.28;;;21.65;61.49
71299;BME280;59083;47.974;21.722;2022-07-29T00:29:53;100460.91;;;21.55;61.88
71299;BME280;59083;47.974;21.722;2022-07-29T00:32:54;100448.38;;;21.49;61.99
71299;BME280;59083;47.974;21.722;2022-07-29T00:35:56;100455.97;;;21.47;62.06
71299;BME280;59083;47.974;21.722;2022-07-29T00:38:57;100457.59;;;21.48;61.97
71299;BME280;59083;47.974;21.722;2022-07-29T00:41:58;100458.13;;;21.45;62.13
71299;BME280;59083;47.974;21.722;2022-07-29T00:44:59;100458.63;;;21.42;62.33
71299;BME280;59083;47.974;21.722;2022-07-29T00:48:02;100455.31;;;21.35;62.75
71299;BME280;59083;47.974;21.722;2022-07-29T00:51:05;100455.56;;;21.33;62.76
71299;BME280;59083;47.974;21.722;2022-07-29T00:54:07;100448.50;;;21.32;62.95
71299;BME280;59083;47.974;21.722;2022-07-29T00:57:08;100454.75;;;21.33;62.87
71299;BME280;59083;47.974;21.722;2022-07-29T01:00:16;100451.41;;;21.26;62.78
71299;BME280;59083;47.974;21.722;2022-07-29T01:03:18;100457.44;;;21.33;62.94
71299;BME280;59083;47.974;21.722;2022-07-29T01:06:20;100457.44;;;21.33;63.04
71299;BME280;59083;47.974;21.722;2022-07-29T01:09:21;100455.03;;;21.36;62.72
71299;BME280;59083;47.974;21.722;2022-07-29T01:12:28;100453.06;;;21.27;63.32
71299;BME280;59083;47.974;21.722;2022-07-29T01:15:49;100451.47;;;21.31;63.20
71299;BME280;59083;47.974;21.722;2022-07-29T01:18:57;100456.38;;;21.34;62.77
71299;BME280;59083;47.974;21.722;2022-07-29T01:25:48;100442.72;;;21.24;63.41
71299;BME280;59083;47.974;21.722;2022-07-29T01:29:01;100438.25;;;21.13;63.69
71299;BME280;59083;47.974;21.722;2022-07-29T01:32:05;100440.84;;;21.02;64.20
71299;BME280;59083;47.974;21.722;2022-07-29T01:35:20;100436.44;;;20.96;64.36
71299;BME280;59083;47.974;21.722;2022-07-29T01:38:24;100448.28;;;20.90;64.83
71299;BME280;59083;47.974;21.722;2022-07-29T01:41:29;100442.62;;;20.92;65.65
71299;BME280;59083;47.974;21.722;2022-07-29T01:44:41;100440.09;;;20.85;65.15
71299;BME280;59083;47.974;21.722;2022-07-29T01:48:02;100445.97;;;20.77;65.53
71299;BME280;59083;47.974;21.722;2022-07-29T01:51:17;100443.59;;;20.59;66.19
71299;BME280;59083;47.974;21.722;2022-07-29T01:54:30;100441.94;;;20.58;66.19
71299;BME280;59083;47.974;21.722;2022-07-29T01:57:34;100442.62;;;20.48;66.81
71299;BME280;59083;47.974;21.722;2022-07-29T02:00:37;100435.56;;;20.47;66.91
71299;BME280;59083;47.974;21.722;2022-07-29T02:03:43;100437.41;;;20.42;67.31
71299;BME280;59083;47.974;21.722;2022-07-29T02:06:47;100437.41;;;20.42;66.75
71299;BME280;59083;47.974;21.722;2022-07-29T02:09:51;100440.16;;;20.47;66.52
71299;BME280;59083;47.974;21.722;2022-07-29T02:12:54;100444.13;;;20.39;66.75
71299;BME280;59083;47.974;21.722;2022-07-29T02:15:58;100447.09;;;20.38;67.15
71299;BME280;59083;47.974;21.722;2022-07-29T02:19:01;100447.09;;;20.38;67.50
71299;BME280;59083;47.974;21.722;2022-07-29T02:22:03;100444.94;;;20.40;66.83
71299;BME280;59083;47.974;21.722;2022-07-29T02:25:10;100447.09;;;20.38;67.34
71299;BME280;59083;47.974;21.722;2022-07-29T02:28:13;100450.34;;;20.40;66.96
71299;BME280;59083;47.974;21.722;2022-07-29T02:31:18;100447.72;;;20.45;66.70
71299;BME280;59083;47.974;21.722;2022-07-29T02:34:23;100451.25;;;20.29;67.86
71299;BME280;59083;47.974;21.722;2022-07-29T02:37:25;100462.53;;;20.37;67.46
71299;BME280;59083;47.974;21.722;2022-07-29T02:40:28;100460.06;;;20.36;66.99
71299;BME280;59083;47.974;21.722;2022-07-29T02:43:30;100459.81;;;20.37;67.10
71299;BME280;59083;47.974;21.722;2022-07-29T02:46:34;100456.28;;;20.37;67.22
71299;BME280;59083;47.974;21.722;2022-07-29T02:53:00;100461.53;;;20.27;68.46
71299;BME280;59083;47.974;21.722;2022-07-29T02:56:11;100456.59;;;20.23;67.68
71299;BME280;59083;47.974;21.722;2022-07-29T02:59:15;100457.59;;;20.17;68.60
71299;BME280;59083;47.974;21.722;2022-07-29T03:02:20;100460.37;;;20.22;68.16
71299;BME280;59083;47.974;21.722;2022-07-29T03:05:22;100457.19;;;20.26;67.99
71299;BME280;59083;47.974;21.722;2022-07-29T03:08:24;100458.75;;;20.21;68.04
71299;BME280;59083;47.974;21.722;2022-07-29T03:11:26;100460.22;;;20.12;68.77
71299;BME280;59083;47.974;21.722;2022-07-29T03:14:27;100461.56;;;20.10;68.53
71299;BME280;59083;47.974;21.722;2022-07-29T03:17:30;100457.06;;;19.99;69.40
71299;BME280;59083;47.974;21.722;2022-07-29T03:20:32;100445.50;;;20.03;69.06
71299;BME280;59083;47.974;21.722;2022-07-29T03:23:34;100452.44;;;19.99;69.48
71299;BME280;59083;47.974;21.722;2022-07-29T03:26:35;100450.84;;;19.98;69.70
71299;BME280;59083;47.974;21.722;2022-07-29T03:29:36;100446.13;;;19.94;69.75
71299;BME280;59083;47.974;21.722;2022-07-29T03:32:38;100450.91;;;19.87;70.26
71299;BME280;59083;47.974;21.722;2022-07-29T03:35:40;100444.84;;;19.96;69.63
71299;BME280;59083;47.974;21.722;2022-07-29T03:38:42;100446.34;;;19.87;70.13
71299;BME280;59083;47.974;21.722;2022-07-29T03:41:47;100448.69;;;20.00;69.48
71299;BME280;59083;47.974;21.722;2022-07-29T03:44:50;100449.25;;;20.02;69.70
71299;BME280;59083;47.974;21.722;2022-07-29T03:47:57;100446.78;;;20.01;69.90
71299;BME280;59083;47.974;21.722;2022-07-29T03:51:00;100454.16;;;20.05;69.63
71299;BME280;59083;47.974;21.722;2022-07-29T03:54:03;100459.75;;;20.15;69.36
71299;BME280;59083;47.974;21.722;2022-07-29T03:57:05;100466.44;;;20.30;68.79
71299;BME280;59083;47.974;21.722;2022-07-29T04:00:08;100467.75;;;20.44;68.38
71299;BME280;59083;47.974;21.722;2022-07-29T04:03:10;100456.88;;;20.60;67.92
71299;BME280;59083;47.974;21.722;2022-07-29T04:06:11;100450.81;;;21.19;65.78
71299;BME280;59083;47.974;21.722;2022-07-29T04:09:13;100453.38;;;21.62;64.43
71299;BME280;59083;47.974;21.722;2022-07-29T04:12:14;100455.16;;;21.78;63.27
71299;BME280;59083;47.974;21.722;2022-07-29T04:15:16;100450.91;;;22.30;61.91
71299;BME280;59083;47.974;21.722;2022-07-29T04:18:17;100443.47;;;22.10;62.39
71299;BME280;59083;47.974;21.722;2022-07-29T04:21:18;100445.91;;;22.58;60.93
71299;BME280;59083;47.974;21.722;2022-07-29T04:24:19;100446.09;;;22.99;59.83
71299;BME280;59083;47.974;21.722;2022-07-29T04:27:21;100455.31;;;22.93;59.89
71299;BME280;59083;47.974;21.722;2022-07-29T04:30:22;100457.47;;;22.96;59.41
71299;BME280;59083;47.974;21.722;2022-07-29T04:33:23;100451.44;;;22.74;60.14
71299;BME280;59083;47.974;21.722;2022-07-29T04:36:24;100451.28;;;22.48;61.04
71299;BME280;59083;47.974;21.722;2022-07-29T04:39:26;100458.03;;;22.93;59.64
71299;BME280;59083;47.974;21.722;2022-07-29T04:42:27;100447.78;;;23.30;58.43
71299;BME280;59083;47.974;21.722;2022-07-29T04:45:28;100440.75;;;23.90;56.63
71299;BME280;59083;47.974;21.722;2022-07-29T04:48:29;100454.28;;;24.51;54.51
71299;BME280;59083;47.974;21.722;2022-07-29T04:51:31;100456.63;;;24.78;54.02
71299;BME280;59083;47.974;21.722;2022-07-29T04:54:32;100451.78;;;25.19;52.58
71299;BME280;59083;47.974;21.722;2022-07-29T04:57:34;100455.81;;;24.77;53.52
71299;BME280;59083;47.974;21.722;2022-07-29T05:00:35;100458.06;;;24.55;54.43
71299;BME280;59083;47.974;21.722;2022-07-29T05:03:36;100473.38;;;24.41;54.88
71299;BME280;59083;47.974;21.722;2022-07-29T05:06:38;100469.44;;;24.72;53.88
71299;BME280;59083;47.974;21.722;2022-07-29T05:09:39;100466.22;;;24.65;54.36
71299;BME280;59083;47.974;21.722;2022-07-29T05:12:40;100482.53;;;24.75;54.07
71299;BME280;59083;47.974;21.722;2022-07-29T05:15:42;100474.13;;;24.61;54.74
71299;BME280;59083;47.974;21.722;2022-07-29T05:18:43;100469.97;;;24.94;53.55
71299;BME280;59083;47.974;21.722;2022-07-29T05:21:44;100478.31;;;25.52;52.29
71299;BME280;59083;47.974;21.722;2022-07-29T05:24:46;100482.94;;;25.12;53.25
71299;BME280;59083;47.974;21.722;2022-07-29T05:27:47;100478.09;;;25.04;53.67
71299;BME280;59083;47.974;21.722;2022-07-29T05:30:48;100489.84;;;24.95;53.89
71299;BME280;59083;47.974;21.722;2022-07-29T05:33:50;100480.00;;;25.48;52.48
71299;BME280;59083;47.974;21.722;2022-07-29T05:36:51;100475.50;;;26.78;49.50
71299;BME280;59083;47.974;21.722;2022-07-29T05:39:53;100471.75;;;26.73;48.64
71299;BME280;59083;47.974;21.722;2022-07-29T05:42:54;100468.44;;;26.77;48.66
71299;BME280;59083;47.974;21.722;2022-07-29T05:45:56;100476.00;;;27.27;47.93
71299;BME280;59083;47.974;21.722;2022-07-29T05:48:57;100461.06;;;26.53;49.56
71299;BME280;59083;47.974;21.722;2022-07-29T05:51:59;100466.56;;;26.96;48.62
71299;BME280;59083;47.974;21.722;2022-07-29T05:55:00;100466.28;;;27.72;46.47
71299;BME280;59083;47.974;21.722;2022-07-29T05:58:05;100465.56;;;26.87;48.60
71299;BME280;59083;47.974;21.722;2022-07-29T06:01:06;100469.16;;;27.43;47.39
71299;BME280;59083;47.974;21.722;2022-07-29T06:04:07;100469.28;;;28.35;45.22
71299;BME280;59083;47.974;21.722;2022-07-29T06:07:09;100473.44;;;27.68;46.75
71299;BME280;59083;47.974;21.722;2022-07-29T06:10:10;100484.72;;;27.67;46.72
71299;BME280;59083;47.974;21.722;2022-07-29T06:13:12;100489.41;;;27.80;46.73
71299;BME280;59083;47.974;21.722;2022-07-29T06:16:13;100481.44;;;29.11;43.88
71299;BME280;59083;47.974;21.722;2022-07-29T06:19:14;100483.06;;;29.26;42.76
71299;BME280;59083;47.974;21.722;2022-07-29T06:22:16;100476.50;;;27.99;46.57
71299;BME280;59083;47.974;21.722;2022-07-29T06:25:18;100472.03;;;27.89;46.92
71299;BME280;59083;47.974;21.722;2022-07-29T06:28:19;100475.69;;;27.10;48.83
71299;BME280;59083;47.974;21.722;2022-07-29T06:31:20;100471.25;;;27.51;48.00
71299;BME280;59083;47.974;21.722;2022-07-29T06:34:22;100470.50;;;26.85;49.70
71299;BME280;59083;47.974;21.722;2022-07-29T06:37:23;100465.62;;;27.24;48.93
71299;BME280;59083;47.974;21.722;2022-07-29T06:40:24;100468.78;;;26.46;51.05
71299;BME280;59083;47.974;21.722;2022-07-29T06:43:44;100469.62;;;25.50;53.45
71299;BME280;59083;47.974;21.722;2022-07-29T06:46:46;100466.25;;;25.68;53.45
71299;BME280;59083;47.974;21.722;2022-07-29T06:49:49;100472.72;;;25.77;53.16
71299;BME280;59083;47.974;21.722;2022-07-29T06:52:51;100462.03;;;26.10;52.63
71299;BME280;59083;47.974;21.722;2022-07-29T06:55:52;100478.28;;;25.96;52.87
71299;BME280;59083;47.974;21.722;2022-07-29T06:58:53;100475.47;;;26.83;50.54
71299;BME280;59083;47.974;21.722;2022-07-29T07:01:54;100472.09;;;29.12;45.26
71299;BME280;59083;47.974;21.722;2022-07-29T07:04:56;100476.69;;;29.53;43.76
71299;BME280;59083;47.974;21.722;2022-07-29T07:07:58;100481.78;;;28.69;45.79
71299;BME280;59083;47.974;21.722;2022-07-29T07:10:59;100485.25;;;28.01;47.37
71299;BME280;59083;47.974;21.722;2022-07-29T07:14:00;100482.03;;;29.36;44.34
71299;BME280;59083;47.974;21.722;2022-07-29T07:17:02;100478.75;;;30.45;41.46
71299;BME280;59083;47.974;21.722;2022-07-29T07:20:05;100485.66;;;31.47;39.23
71299;BME280;59083;47.974;21.722;2022-07-29T07:23:07;100490.31;;;31.90;38.77
71299;BME280;59083;47.974;21.722;2022-07-29T07:26:08;100489.25;;;32.37;37.96
71299;BME280;59083;47.974;21.722;2022-07-29T07:29:10;100484.69;;;31.78;39.08
71299;BME280;59083;47.974;21.722;2022-07-29T07:32:11;100477.09;;;32.30;37.46
71299;BME280;59083;47.974;21.722;2022-07-29T07:35:14;100474.56;;;32.92;36.86
71299;BME280;59083;47.974;21.722;2022-07-29T07:38:15;100480.91;;;33.13;36.01
71299;BME280;59083;47.974;21.722;2022-07-29T07:41:16;100483.63;;;32.25;37.50
71299;BME280;59083;47.974;21.722;2022-07-29T07:44:17;100476.66;;;32.66;37.06
71299;BME280;59083;47.974;21.722;2022-07-29T07:47:19;100476.91;;;33.32;35.28
71299;BME280;59083;47.974;21.722;2022-07-29T07:50:24;100482.81;;;33.63;34.33
71299;BME280;59083;47.974;21.722;2022-07-29T07:53:26;100467.44;;;32.53;36.61
71299;BME280;59083;47.974;21.722;2022-07-29T07:56:27;100475.00;;;32.65;36.35
71299;BME280;59083;47.974;21.722;2022-07-29T07:59:28;100478.78;;;32.05;37.29
71299;BME280;59083;47.974;21.722;2022-07-29T08:02:29;100477.28;;;33.21;35.35
71299;BME280;59083;47.974;21.722;2022-07-29T08:05:31;100480.41;;;33.41;34.90
71299;BME280;59083;47.974;21.722;2022-07-29T08:08:33;100487.00;;;32.98;35.81
71299;BME280;59083;47.974;21.722;2022-07-29T08:11:34;100480.75;;;33.60;34.81
71299;BME280;59083;47.974;21.722;2022-07-29T08:14:35;100487.06;;;33.81;34.41
71299;BME280;59083;47.974;21.722;2022-07-29T08:17:37;100483.28;;;33.03;35.65
71299;BME280;59083;47.974;21.722;2022-07-29T08:20:39;100484.25;;;32.98;35.79
71299;BME280;59083;47.974;21.722;2022-07-29T08:23:42;100486.38;;;32.08;37.84
71299;BME280;59083;47.974;21.722;2022-07-29T08:26:47;100490.19;;;31.78;38.19
71299;BME280;59083;47.974;21.722;2022-07-29T08:29:49;100486.28;;;31.87;38.19
71299;BME280;59083;47.974;21.722;2022-07-29T08:32:50;100485.53;;;32.33;37.63
71299;BME280;59083;47.974;21.722;2022-07-29T08:35:54;100483.66;;;32.55;37.16
71299;BME280;59083;47.974;21.722;2022-07-29T08:38:55;100482.69;;;33.18;36.25
71299;BME280;59083;47.974;21.722;2022-07-29T08:41:56;100495.19;;;32.57;36.84
71299;BME280;59083;47.974;21.722;2022-07-29T08:44:58;100479.19;;;33.30;35.79
71299;BME280;59083;47.974;21.722;2022-07-29T08:48:00;100483.63;;;32.25;37.66
71299;BME280;59083;47.974;21.722;2022-07-29T08:51:01;100479.00;;;32.47;37.21
71299;BME280;59083;47.974;21.722;2022-07-29T08:54:03;100482.97;;;32.75;36.67
71299;BME280;59083;47.974;21.722;2022-07-29T08:57:05;100478.59;;;32.27;37.65
71299;BME280;59083;47.974;21.722;2022-07-29T09:00:07;100472.25;;;32.73;36.67
71299;BME280;59083;47.974;21.722;2022-07-29T09:03:12;100468.75;;;32.85;36.83
71299;BME280;59083;47.974;21.722;2022-07-29T09:06:18;100470.72;;;33.05;36.46
71299;BME280;59083;47.974;21.722;2022-07-29T09:09:19;100463.66;;;32.96;36.67
71299;BME280;59083;47.974;21.722;2022-07-29T09:12:21;100460.63;;;33.09;36.46
71299;BME280;59083;47.974;21.722;2022-07-29T09:15:23;100461.53;;;32.72;37.31
71299;BME280;59083;47.974;21.722;2022-07-29T09:18:45;100460.09;;;32.66;37.13
71299;BME280;59083;47.974;21.722;2022-07-29T09:21:46;100450.44;;;32.42;37.54
71299;BME280;59083;47.974;21.722;2022-07-29T09:25:00;100455.38;;;32.28;37.88
71299;BME280;59083;47.974;21.722;2022-07-29T09:28:12;100451.91;;;31.50;39.15
71299;BME280;59083;47.974;21.722;2022-07-29T09:31:14;100453.53;;;31.69;38.96
71299;BME280;59083;47.974;21.722;2022-07-29T09:34:20;100452.88;;;32.44;37.86
71299;BME280;59083;47.974;21.722;2022-07-29T09:37:26;100451.28;;;32.72;36.98
71299;BME280;59083;47.974;21.722;2022-07-29T09:40:28;100450.25;;;32.86;36.54
71299;BME280;59083;47.974;21.722;2022-07-29T09:43:30;100444.72;;;32.48;37.14
71299;BME280;59083;47.974;21.722;2022-07-29T09:46:31;100437.06;;;32.53;38.10
71299;BME280;59083;47.974;21.722;2022-07-29T09:49:34;100446.91;;;32.33;38.02
71299;BME280;59083;47.974;21.722;2022-07-29T09:52:45;100448.34;;;31.41;39.80
71299;BME280;59083;47.974;21.722;2022-07-29T09:55:48;100441.53;;;31.56;39.29
71299;BME280;59083;47.974;21.722;2022-07-29T09:59:05;100430.53;;;31.13;40.07
71299;BME280;59083;47.974;21.722;2022-07-29T10:02:13;100420.34;;;31.31;40.27
71299;BME280;59083;47.974;21.722;2022-07-29T10:08:25;100423.72;;;31.62;39.42
71299;BME280;59083;47.974;21.722;2022-07-29T10:11:27;100421.47;;;31.21;39.94
71299;BME280;59083;47.974;21.722;2022-07-29T10:14:33;100420.34;;;31.13;40.59
71299;BME280;59083;47.974;21.722;2022-07-29T10:17:35;100419.50;;;31.47;39.74
71299;BME280;59083;47.974;21.722;2022-07-29T10:20:37;100419.69;;;31.25;40.25
71299;BME280;59083;47.974;21.722;2022-07-29T10:23:39;100419.69;;;31.08;40.42
71299;BME280;59083;47.974;21.722;2022-07-29T10:26:42;100429.03;;;30.98;40.85
71299;BME280;59083;47.974;21.722;2022-07-29T10:29:43;100414.56;;;30.58;41.70
71299;BME280;59083;47.974;21.722;2022-07-29T10:39:18;100401.44;;;30.55;41.51
71299;BME280;59083;47.974;21.722;2022-07-29T10:42:25;100409.72;;;30.72;40.71
71299;BME280;59083;47.974;21.722;2022-07-29T10:45:29;100407.91;;;30.51;41.16
71299;BME280;59083;47.974;21.722;2022-07-29T10:48:30;100396.97;;;30.37;41.28
71299;BME280;59083;47.974;21.722;2022-07-29T10:51:51;100406.34;;;30.36;42.22
71299;BME280;59083;47.974;21.722;2022-07-29T10:54:53;100401.34;;;30.29;42.10
71299;BME280;59083;47.974;21.722;2022-07-29T10:58:18;100404.03;;;30.12;42.19
71299;BME280;59083;47.974;21.722;2022-07-29T11:01:29;100402.97;;;30.00;42.40
71299;BME280;59083;47.974;21.722;2022-07-29T11:21:01;100391.22;;;29.85;44.28
71299;BME280;59083;47.974;21.722;2022-07-29T11:24:35;100383.37;;;29.92;43.29
71299;BME280;59083;47.974;21.722;2022-07-29T11:27:37;100386.03;;;30.06;43.17
71299;BME280;59083;47.974;21.722;2022-07-29T11:30:51;100384.94;;;30.16;42.76
71299;BME280;59083;47.974;21.722;2022-07-29T11:33:53;100380.75;;;30.27;42.03
71299;BME280;59083;47.974;21.722;2022-07-29T11:40:13;100372.13;;;30.59;41.06
71299;BME280;59083;47.974;21.722;2022-07-29T11:43:47;100377.50;;;30.82;40.82
71299;BME280;59083;47.974;21.722;2022-07-29T11:46:50;100371.69;;;31.00;40.38
71299;BME280;59083;47.974;21.722;2022-07-29T11:49:52;100371.22;;;31.24;40.44
71299;BME280;59083;47.974;21.722;2022-07-29T11:52:54;100371.22;;;31.24;40.04
71299;BME280;59083;47.974;21.722;2022-07-29T11:55:55;100359.84;;;31.51;39.39
71299;BME280;59083;47.974;21.722;2022-07-29T11:59:05;100366.97;;;31.70;39.04
71299;BME280;59083;47.974;21.722;2022-07-29T12:02:07;100352.25;;;32.04;38.01
71299;BME280;59083;47.974;21.722;2022-07-29T12:05:09;100348.34;;;32.05;38.30
71299;BME280;59083;47.974;21.722;2022-07-29T12:08:16;100345.44;;;32.01;38.00
71299;BME280;59083;47.974;21.722;2022-07-29T12:11:22;100343.97;;;32.04;37.57
71299;BME280;59083;47.974;21.722;2022-07-29T12:14:28;100327.72;;;32.11;36.62
71299;BME280;59083;47.974;21.722;2022-07-29T12:17:30;100335.31;;;32.22;36.79
71299;BME280;59083;47.974;21.722;2022-07-29T12:20:32;100331.13;;;32.16;36.96
71299;BME280;59083;47.974;21.722;2022-07-29T12:23:34;100343.28;;;32.15;37.33
71299;BME280;59083;47.974;21.722;2022-07-29T12:26:35;100328.25;;;31.95;37.11
71299;BME280;59083;47.974;21.722;2022-07-29T12:29:37;100325.59;;;31.78;37.46
71299;BME280;59083;47.974;21.722;2022-07-29T12:32:41;100332.25;;;31.69;37.63
71299;BME280;59083;47.974;21.722;2022-07-29T12:35:45;100327.53;;;31.78;37.39
71299;BME280;59083;47.974;21.722;2022-07-29T12:38:46;100321.47;;;31.93;37.03
71299;BME280;59083;47.974;21.722;2022-07-29T12:41:48;100326.88;;;31.81;36.88
71299;BME280;59083;47.974;21.722;2022-07-29T12:44:50;100320.09;;;31.78;36.63
71299;BME280;59083;47.974;21.722;2022-07-29T12:47:52;100318.66;;;31.64;36.56
71299;BME280;59083;47.974;21.722;2022-07-29T12:51:00;100316.41;;;31.66;36.28
71299;BME280;59083;47.974;21.722;2022-07-29T12:54:08;100307.53;;;31.43;36.60
71299;BME280;59083;47.974;21.722;2022-07-29T12:57:11;100301.41;;;31.11;35.87
71299;BME280;59083;47.974;21.722;2022-07-29T13:00:13;100298.84;;;31.15;35.85
71299;BME280;59083;47.974;21.722;2022-07-29T13:03:15;100292.00;;;31.30;36.02
71299;BME280;59083;47.974;21.722;2022-07-29T13:06:39;100282.13;;;31.20;36.96
71299;BME280;59083;47.974;21.722;2022-07-29T13:09:42;100278.53;;;31.28;37.49
71299;BME280;59083;47.974;21.722;2022-07-29T13:13:09;100273.47;;;31.39;37.30
71299;BME280;59083;47.974;21.722;2022-07-29T13:16:11;100267.00;;;31.43;37.59
71299;BME280;59083;47.974;21.722;2022-07-29T13:19:12;100276.22;;;31.39;37.37
71299;BME280;59083;47.974;21.722;2022-07-29T13:22:16;100267.56;;;31.11;38.54
71299;BME280;59083;47.974;21.722;2022-07-29T13:25:29;100257.69;;;31.10;38.68
71299;BME280;59083;47.974;21.722;2022-07-29T13:28:30;100255.72;;;31.10;38.04
71299;BME280;59083;47.974;21.722;2022-07-29T13:31:32;100256.84;;;31.01;37.55
71299;BME280;59083;47.974;21.722;2022-07-29T13:34:33;100256.25;;;31.04;37.41
71299;BME280;59083;47.974;21.722;2022-07-29T13:37:35;100249.59;;;31.05;36.71
71299;BME280;59083;47.974;21.722;2022-07-29T13:40:38;100248.59;;;31.18;35.86
71299;BME280;59083;47.974;21.722;2022-07-29T13:43:40;100252.00;;;31.15;34.83
71299;BME280;59083;47.974;21.722;2022-07-29T13:46:41;100240.69;;;31.08;35.19
71299;BME280;59083;47.974;21.722;2022-07-29T13:49:42;100246.19;;;31.08;34.91
71299;BME280;59083;47.974;21.722;2022-07-29T13:52:44;100242.31;;;31.09;34.00
71299;BME280;59083;47.974;21.722;2022-07-29T13:55:45;100239.06;;;31.07;33.75
71299;BME280;59083;47.974;21.722;2022-07-29T13:58:46;100231.28;;;31.09;33.59
71299;BME280;59083;47.974;21.722;2022-07-29T14:01:48;100233.19;;;31.17;33.27
71299;BME280;59083;47.974;21.722;2022-07-29T14:04:49;100224.47;;;31.06;33.91
71299;BME280;59083;47.974;21.722;2022-07-29T14:07:50;100220.91;;;31.06;34.70
71299;BME280;59083;47.974;21.722;2022-07-29T14:10:51;100218.28;;;31.18;34.42
71299;BME280;59083;47.974;21.722;2022-07-29T14:13:53;100222.50;;;31.24;32.82
71299;BME280;59083;47.974;21.722;2022-07-29T14:16:54;100226.25;;;31.11;31.58
71299;BME280;59083;47.974;21.722;2022-07-29T14:19:55;100218.28;;;31.18;30.91
71299;BME280;59083;47.974;21.722;2022-07-29T14:22:57;100227.03;;;31.20;31.25
71299;BME280;59083;47.974;21.722;2022-07-29T14:25:58;100227.31;;;31.27;31.13
71299;BME280;59083;47.974;21.722;2022-07-29T14:28:59;100223.16;;;31.21;31.34
71299;BME280;59083;47.974;21.722;2022-07-29T14:32:00;100218.59;;;31.25;31.23
71299;BME280;59083;47.974;21.722;2022-07-29T14:35:02;100218.59;;;31.25;31.52
71299;BME280;59083;47.974;21.722;2022-07-29T14:38:03;100212.59;;;31.32;31.27
71299;BME280;59083;47.974;21.722;2022-07-29T14:41:05;100210.47;;;31.37;30.73
71299;BME280;59083;47.974;21.722;2022-07-29T14:44:06;100210.09;;;31.47;30.46
71299;BME280;59083;47.974;21.722;2022-07-29T14:47:08;100212.09;;;31.38;30.92
71299;BME280;59083;47.974;21.722;2022-07-29T14:50:10;100207.06;;;31.32;30.82
71299;BME280;59083;47.974;21.722;2022-07-29T14:53:11;100199.31;;;31.25;30.47
71299;BME280;59083;47.974;21.722;2022-07-29T14:56:16;100200.47;;;31.24;30.71
71299;BME280;59083;47.974;21.722;2022-07-29T14:59:17;100182.50;;;31.18;30.88
71299;BME280;59083;47.974;21.722;2022-07-29T15:02:18;100184.28;;;31.14;30.32
71299;BME280;59083;47.974;21.722;2022-07-29T15:05:20;100186.72;;;31.15;30.56
71299;BME280;59083;47.974;21.722;2022-07-29T15:08:21;100187.81;;;31.23;30.99
71299;BME280;59083;47.974;21.722;2022-07-29T15:11:22;100177.47;;;31.20;31.30
71299;BME280;59083;47.974;21.722;2022-07-29T15:14:24;100183.63;;;31.17;30.74
71299;BME280;59083;47.974;21.722;2022-07-29T15:17:25;100181.91;;;31.04;32.95
71299;BME280;59083;47.974;21.722;2022-07-29T15:20:26;100169.72;;;31.05;34.08
71299;BME280;59083;47.974;21.722;2022-07-29T15:23:28;100169.25;;;31.03;34.56
71299;BME280;59083;47.974;21.722;2022-07-29T15:26:29;100166.00;;;31.01;35.43
71299;BME280;59083;47.974;21.722;2022-07-29T15:29:30;100161.34;;;30.93;35.79
71299;BME280;59083;47.974;21.722;2022-07-29T15:32:32;100158.28;;;30.86;35.86
71299;BME280;59083;47.974;21.722;2022-07-29T15:35:33;100157.44;;;30.94;36.22
71299;BME280;59083;47.974;21.722;2022-07-29T15:38:34;100147.59;;;30.84;36.09
71299;BME280;59083;47.974;21.722;2022-07-29T15:41:36;100152.31;;;30.75;36.15
71299;BME280;59083;47.974;21.722;2022-07-29T15:44:37;100141.13;;;30.71;36.09
71299;BME280;59083;47.974;21.722;2022-07-29T15:47:38;100139.06;;;30.68;35.81
71299;BME280;59083;47.974;21.722;2022-07-29T15:50:39;100135.66;;;30.63;35.83
71299;BME280;59083;47.974;21.722;2022-07-29T15:53:41;100136.16;;;30.56;35.78
71299;BME280;59083;47.974;21.722;2022-07-29T15:56:42;100130.50;;;30.53;35.70
71299;BME280;59083;47.974;21.722;2022-07-29T15:59:43;100124.34;;;30.56;35.38
71299;BME280;59083;47.974;21.722;2022-07-29T16:02:44;100130.66;;;30.56;34.20
71299;BME280;59083;47.974;21.722;2022-07-29T16:05:46;100131.78;;;30.55;33.87
71299;BME280;59083;47.974;21.722;2022-07-29T16:08:47;100125.97;;;30.57;34.06
71299;BME280;59083;47.974;21.722;2022-07-29T16:11:49;100121.09;;;30.62;34.13
71299;BME280;59083;47.974;21.722;2022-07-29T16:14:53;100128.41;;;30.58;33.83
71299;BME280;59083;47.974;21.722;2022-07-29T16:17:54;100137.78;;;30.57;33.59
71299;BME280;59083;47.974;21.722;2022-07-29T16:20:55;100145.84;;;30.54;33.68
71299;BME280;59083;47.974;21.722;2022-07-29T16:23:58;100137.59;;;30.54;33.43